sensor_id;sensor_type;location;lat;lon;timestamp;P1;durP1;ratioP1;P2;durP2;ratioP2
4472;SDS011;2249;42.626;23.320;2024-03-17T00:01:07;25.23;;;17.80;;
4472;SDS011;2249;42.626;23.320;2024-03-17T00:03:32;24.43;;;16.00;;
4472;SDS011;2249;42.626;23.320;2024-03-17T00:06:01;26.63;;;16.60;;
4472;SDS011;2249;42.626;23.320;2024-03-17T00:08:26;25.30;;;16.63;;
4472;SDS011;2249;42.626;23.320;2024-03-17T00:10:53;27.23;;;17.10;;
4472;SDS011;2249;42.626;23.320;2024-03-17T00:13:19;20.77;;;14.27;;
4472;SDS011;2249;42.626;23.320;2024-03-17T00:15:46;19.10;;;14.13;;
4472;SDS011;2249;42.626;23.320;2024-03-17T00:18:12;26.03;;;14.70;;
4472;SDS011;2249;42.626;23.320;2024-03-17T00:20:39;23.10;;;14.87;;
4472;SDS011;2249;42.626;23.320;2024-03-17T00:23:06;20.80;;;14.90;;
4472;SDS011;2249;42.626;23.320;2024-03-17T00:25:34;23.43;;;15.23;;
4472;SDS011;2249;42.626;23.320;2024-03-17T00:28:01;23.60;;;15.03;;
4472;SDS011;2249;42.626;23.320;2024-03-17T00:30:26;22.17;;;15.30;;
4472;SDS011;2249;42.626;23.320;2024-03-17T00:32:53;45.10;;;22.50;;
4472;SDS011;2249;42.626;23.320;2024-03-17T00:35:19;28.60;;;16.60;;
4472;SDS011;2249;42.626;23.320;2024-03-17T00:37:46;21.77;;;15.97;;
4472;SDS011;2249;42.626;23.320;2024-03-17T00:40:13;30.47;;;17.97;;
4472;SDS011;2249;42.626;23.320;2024-03-17T00:42:41;28.27;;;18.80;;
4472;SDS011;2249;42.626;23.320;2024-03-17T00:45:07;45.63;;;23.63;;
4472;SDS011;2249;42.626;23.320;2024-03-17T00:47:35;48.87;;;24.60;;
4472;SDS011;2249;42.626;23.320;2024-03-17T00:50:00;64.57;;;28.77;;
4472;SDS011;2249;42.626;23.320;2024-03-17T00:52:27;39.83;;;21.00;;
4472;SDS011;2249;42.626;23.320;2024-03-17T00:54:53;28.07;;;16.53;;
4472;SDS011;2249;42.626;23.320;2024-03-17T00:57:20;26.67;;;17.77;;
4472;SDS011;2249;42.626;23.320;2024-03-17T00:59:46;27.27;;;18.03;;
4472;SDS011;2249;42.626;23.320;2024-03-17T01:02:13;31.80;;;19.07;;
4472;SDS011;2249;42.626;23.320;2024-03-17T01:04:39;52.50;;;27.27;;
4472;SDS011;2249;42.626;23.320;2024-03-17T01:07:05;36.40;;;21.83;;
4472;SDS011;2249;42.626;23.320;2024-03-17T01:09:31;37.77;;;21.33;;
4472;SDS011;2249;42.626;23.320;2024-03-17T01:11:58;30.43;;;19.90;;
4472;SDS011;2249;42.626;23.320;2024-03-17T01:14:24;36.60;;;24.33;;
4472;SDS011;2249;42.626;23.320;2024-03-17T01:16:51;54.40;;;31.40;;
4472;SDS011;2249;42.626;23.320;2024-03-17T01:19:17;50.87;;;28.00;;
4472;SDS011;2249;42.626;23.320;2024-03-17T01:21:44;29.60;;;19.97;;
4472;SDS011;2249;42.626;23.320;2024-03-17T01:24:09;35.33;;;22.63;;
4472;SDS011;2249;42.626;23.320;2024-03-17T01:26:36;53.57;;;27.50;;
4472;SDS011;2249;42.626;23.320;2024-03-17T01:29:01;59.60;;;29.37;;
4472;SDS011;2249;42.626;23.320;2024-03-17T01:31:29;29.60;;;19.00;;
4472;SDS011;2249;42.626;23.320;2024-03-17T01:33:54;49.80;;;27.17;;
4472;SDS011;2249;42.626;23.320;2024-03-17T01:36:21;19.87;;;16.03;;
4472;SDS011;2249;42.626;23.320;2024-03-17T01:38:46;94.63;;;43.67;;
4472;SDS011;2249;42.626;23.320;2024-03-17T01:41:13;31.40;;;20.30;;
4472;SDS011;2249;42.626;23.320;2024-03-17T01:43:39;95.93;;;45.23;;
4472;SDS011;2249;42.626;23.320;2024-03-17T01:46:06;37.40;;;21.43;;
4472;SDS011;2249;42.626;23.320;2024-03-17T01:48:37;48.37;;;25.53;;
4472;SDS011;2249;42.626;23.320;2024-03-17T01:51:04;51.27;;;28.03;;
4472;SDS011;2249;42.626;23.320;2024-03-17T01:53:29;27.07;;;17.83;;
4472;SDS011;2249;42.626;23.320;2024-03-17T01:55:56;25.67;;;16.57;;
4472;SDS011;2249;42.626;23.320;2024-03-17T01:58:22;23.37;;;17.30;;
4472;SDS011;2249;42.626;23.320;2024-03-17T02:00:50;25.83;;;17.57;;
4472;SDS011;2249;42.626;23.320;2024-03-17T02:03:17;41.20;;;26.67;;
4472;SDS011;2249;42.626;23.320;2024-03-17T02:05:45;51.37;;;29.43;;
4472;SDS011;2249;42.626;23.320;2024-03-17T02:08:11;43.00;;;26.23;;
4472;SDS011;2249;42.626;23.320;2024-03-17T02:10:37;37.30;;;23.03;;
4472;SDS011;2249;42.626;23.320;2024-03-17T02:13:03;33.53;;;21.70;;
4472;SDS011;2249;42.626;23.320;2024-03-17T02:15:30;28.53;;;17.80;;
4472;SDS011;2249;42.626;23.320;2024-03-17T02:17:56;22.87;;;16.77;;
4472;SDS011;2249;42.626;23.320;2024-03-17T02:20:23;30.33;;;18.23;;
4472;SDS011;2249;42.626;23.320;2024-03-17T02:23:10;35.20;;;18.60;;
4472;SDS011;2249;42.626;23.320;2024-03-17T02:25:37;33.17;;;20.70;;
4472;SDS011;2249;42.626;23.320;2024-03-17T02:28:02;30.03;;;20.13;;
4472;SDS011;2249;42.626;23.320;2024-03-17T02:30:30;45.83;;;23.07;;
4472;SDS011;2249;42.626;23.320;2024-03-17T02:32:55;26.67;;;17.97;;
4472;SDS011;2249;42.626;23.320;2024-03-17T02:35:22;21.27;;;15.63;;
4472;SDS011;2249;42.626;23.320;2024-03-17T02:37:47;22.43;;;14.77;;
4472;SDS011;2249;42.626;23.320;2024-03-17T02:40:15;18.40;;;13.80;;
4472;SDS011;2249;42.626;23.320;2024-03-17T02:42:41;26.30;;;17.90;;
4472;SDS011;2249;42.626;23.320;2024-03-17T02:45:10;24.73;;;16.40;;
4472;SDS011;2249;42.626;23.320;2024-03-17T02:47:37;26.40;;;15.90;;
4472;SDS011;2249;42.626;23.320;2024-03-17T02:50:04;26.03;;;17.00;;
4472;SDS011;2249;42.626;23.320;2024-03-17T02:52:30;25.10;;;16.50;;
4472;SDS011;2249;42.626;23.320;2024-03-17T02:54:57;32.20;;;17.43;;
4472;SDS011;2249;42.626;23.320;2024-03-17T02:57:25;20.33;;;14.23;;
4472;SDS011;2249;42.626;23.320;2024-03-17T02:59:54;25.07;;;17.33;;
4472;SDS011;2249;42.626;23.320;2024-03-17T03:02:21;20.90;;;15.20;;
4472;SDS011;2249;42.626;23.320;2024-03-17T03:04:48;26.30;;;16.50;;
4472;SDS011;2249;42.626;23.320;2024-03-17T03:07:14;23.83;;;16.00;;
4472;SDS011;2249;42.626;23.320;2024-03-17T03:09:41;67.43;;;28.67;;
4472;SDS011;2249;42.626;23.320;2024-03-17T03:12:08;36.37;;;19.50;;
4472;SDS011;2249;42.626;23.320;2024-03-17T03:14:36;40.70;;;24.73;;
4472;SDS011;2249;42.626;23.320;2024-03-17T03:17:02;22.13;;;14.30;;
4472;SDS011;2249;42.626;23.320;2024-03-17T03:19:29;28.87;;;16.50;;
4472;SDS011;2249;42.626;23.320;2024-03-17T03:21:55;50.83;;;22.30;;
4472;SDS011;2249;42.626;23.320;2024-03-17T03:24:22;32.60;;;17.67;;
4472;SDS011;2249;42.626;23.320;2024-03-17T03:26:48;26.40;;;16.80;;
4472;SDS011;2249;42.626;23.320;2024-03-17T03:29:15;26.50;;;17.90;;
4472;SDS011;2249;42.626;23.320;2024-03-17T03:31:42;26.17;;;16.93;;
4472;SDS011;2249;42.626;23.320;2024-03-17T03:34:09;29.23;;;20.40;;
4472;SDS011;2249;42.626;23.320;2024-03-17T03:36:37;25.70;;;16.07;;
4472;SDS011;2249;42.626;23.320;2024-03-17T03:39:03;25.00;;;15.30;;
4472;SDS011;2249;42.626;23.320;2024-03-17T03:41:31;28.87;;;15.80;;
4472;SDS011;2249;42.626;23.320;2024-03-17T03:43:57;23.87;;;15.10;;
4472;SDS011;2249;42.626;23.320;2024-03-17T03:46:24;28.43;;;16.53;;
4472;SDS011;2249;42.626;23.320;2024-03-17T03:48:52;33.50;;;21.23;;
4472;SDS011;2249;42.626;23.320;2024-03-17T03:51:19;23.40;;;16.57;;
4472;SDS011;2249;42.626;23.320;2024-03-17T03:53:46;39.20;;;21.87;;
4472;SDS011;2249;42.626;23.320;2024-03-17T03:56:12;28.50;;;17.63;;
4472;SDS011;2249;42.626;23.320;2024-03-17T03:58:40;31.23;;;17.10;;
4472;SDS011;2249;42.626;23.320;2024-03-17T04:01:08;23.93;;;15.63;;
4472;SDS011;2249;42.626;23.320;2024-03-17T04:03:36;21.33;;;14.57;;
4472;SDS011;2249;42.626;23.320;2024-03-17T04:06:05;20.30;;;13.83;;
4472;SDS011;2249;42.626;23.320;2024-03-17T04:08:32;18.97;;;13.37;;
4472;SDS011;2249;42.626;23.320;2024-03-17T04:10:59;20.90;;;13.63;;
4472;SDS011;2249;42.626;23.320;2024-03-17T04:13:26;44.03;;;25.80;;
4472;SDS011;2249;42.626;23.320;2024-03-17T04:15:53;23.50;;;15.70;;
4472;SDS011;2249;42.626;23.320;2024-03-17T04:18:22;16.10;;;11.53;;
4472;SDS011;2249;42.626;23.320;2024-03-17T04:20:50;16.40;;;11.77;;
4472;SDS011;2249;42.626;23.320;2024-03-17T04:23:17;19.40;;;14.27;;
4472;SDS011;2249;42.626;23.320;2024-03-17T04:25:44;19.57;;;13.70;;
4472;SDS011;2249;42.626;23.320;2024-03-17T04:28:10;17.70;;;13.60;;
4472;SDS011;2249;42.626;23.320;2024-03-17T04:30:37;18.20;;;13.50;;
4472;SDS011;2249;42.626;23.320;2024-03-17T04:33:04;28.73;;;13.60;;
4472;SDS011;2249;42.626;23.320;2024-03-17T04:35:34;14.80;;;11.37;;
4472;SDS011;2249;42.626;23.320;2024-03-17T04:38:01;19.07;;;12.97;;
4472;SDS011;2249;42.626;23.320;2024-03-17T04:40:29;37.83;;;20.87;;
4472;SDS011;2249;42.626;23.320;2024-03-17T04:42:56;28.13;;;17.30;;
4472;SDS011;2249;42.626;23.320;2024-03-17T04:45:23;26.20;;;15.90;;
4472;SDS011;2249;42.626;23.320;2024-03-17T04:47:49;24.30;;;14.13;;
4472;SDS011;2249;42.626;23.320;2024-03-17T04:50:16;20.60;;;16.60;;
4472;SDS011;2249;42.626;23.320;2024-03-17T04:52:42;21.57;;;15.90;;
4472;SDS011;2249;42.626;23.320;2024-03-17T04:55:09;22.67;;;15.90;;
4472;SDS011;2249;42.626;23.320;2024-03-17T04:57:36;22.83;;;13.53;;
4472;SDS011;2249;42.626;23.320;2024-03-17T05:00:04;19.87;;;14.73;;
4472;SDS011;2249;42.626;23.320;2024-03-17T05:02:32;22.80;;;13.43;;
4472;SDS011;2249;42.626;23.320;2024-03-17T05:04:58;19.87;;;14.10;;
4472;SDS011;2249;42.626;23.320;2024-03-17T05:07:25;20.17;;;12.67;;
4472;SDS011;2249;42.626;23.320;2024-03-17T05:09:51;20.83;;;13.73;;
4472;SDS011;2249;42.626;23.320;2024-03-17T05:12:18;26.07;;;14.73;;
4472;SDS011;2249;42.626;23.320;2024-03-17T05:14:46;17.90;;;12.83;;
4472;SDS011;2249;42.626;23.320;2024-03-17T05:17:12;26.37;;;13.90;;
4472;SDS011;2249;42.626;23.320;2024-03-17T05:19:39;18.87;;;12.87;;
4472;SDS011;2249;42.626;23.320;2024-03-17T05:22:05;22.13;;;14.93;;
4472;SDS011;2249;42.626;23.320;2024-03-17T05:24:32;19.63;;;14.23;;
4472;SDS011;2249;42.626;23.320;2024-03-17T05:26:58;22.60;;;14.63;;
4472;SDS011;2249;42.626;23.320;2024-03-17T05:29:25;20.57;;;14.80;;
4472;SDS011;2249;42.626;23.320;2024-03-17T05:31:53;33.97;;;18.40;;
4472;SDS011;2249;42.626;23.320;2024-03-17T05:34:19;51.63;;;24.63;;
4472;SDS011;2249;42.626;23.320;2024-03-17T05:36:46;29.07;;;20.13;;
4472;SDS011;2249;42.626;23.320;2024-03-17T05:39:12;34.03;;;21.10;;
4472;SDS011;2249;42.626;23.320;2024-03-17T05:41:39;27.40;;;18.23;;
4472;SDS011;2249;42.626;23.320;2024-03-17T05:44:06;32.13;;;20.20;;
4472;SDS011;2249;42.626;23.320;2024-03-17T05:46:33;27.17;;;18.40;;
4472;SDS011;2249;42.626;23.320;2024-03-17T05:49:01;33.90;;;22.37;;
4472;SDS011;2249;42.626;23.320;2024-03-17T05:51:28;29.30;;;19.30;;
4472;SDS011;2249;42.626;23.320;2024-03-17T05:53:55;35.30;;;23.67;;
4472;SDS011;2249;42.626;23.320;2024-03-17T05:56:23;27.70;;;20.50;;
4472;SDS011;2249;42.626;23.320;2024-03-17T05:58:50;29.10;;;20.80;;
4472;SDS011;2249;42.626;23.320;2024-03-17T06:01:16;27.03;;;18.73;;
4472;SDS011;2249;42.626;23.320;2024-03-17T06:03:44;24.87;;;17.93;;
4472;SDS011;2249;42.626;23.320;2024-03-17T06:09:03;27.27;;;18.37;;
4472;SDS011;2249;42.626;23.320;2024-03-17T06:11:34;26.73;;;18.67;;
4472;SDS011;2249;42.626;23.320;2024-03-17T06:14:01;28.93;;;20.73;;
4472;SDS011;2249;42.626;23.320;2024-03-17T06:16:31;27.07;;;20.73;;
4472;SDS011;2249;42.626;23.320;2024-03-17T06:18:58;27.80;;;20.10;;
4472;SDS011;2249;42.626;23.320;2024-03-17T06:21:24;28.10;;;18.57;;
4472;SDS011;2249;42.626;23.320;2024-03-17T06:23:51;32.37;;;20.73;;
4472;SDS011;2249;42.626;23.320;2024-03-17T06:26:19;27.50;;;20.03;;
4472;SDS011;2249;42.626;23.320;2024-03-17T06:28:46;25.67;;;18.10;;
4472;SDS011;2249;42.626;23.320;2024-03-17T06:31:12;30.17;;;20.40;;
4472;SDS011;2249;42.626;23.320;2024-03-17T06:33:39;26.03;;;19.30;;
4472;SDS011;2249;42.626;23.320;2024-03-17T06:36:06;30.73;;;19.20;;
4472;SDS011;2249;42.626;23.320;2024-03-17T06:38:32;31.63;;;20.30;;
4472;SDS011;2249;42.626;23.320;2024-03-17T06:40:59;27.93;;;18.70;;
4472;SDS011;2249;42.626;23.320;2024-03-17T06:43:27;28.20;;;16.97;;
4472;SDS011;2249;42.626;23.320;2024-03-17T06:45:54;29.97;;;20.47;;
4472;SDS011;2249;42.626;23.320;2024-03-17T06:48:21;37.60;;;19.97;;
4472;SDS011;2249;42.626;23.320;2024-03-17T06:50:48;30.00;;;21.30;;
4472;SDS011;2249;42.626;23.320;2024-03-17T06:53:14;28.63;;;19.87;;
4472;SDS011;2249;42.626;23.320;2024-03-17T06:55:41;31.77;;;20.43;;
4472;SDS011;2249;42.626;23.320;2024-03-17T06:58:07;32.10;;;21.30;;
4472;SDS011;2249;42.626;23.320;2024-03-17T07:00:35;31.27;;;20.60;;
4472;SDS011;2249;42.626;23.320;2024-03-17T07:03:02;29.90;;;21.57;;
4472;SDS011;2249;42.626;23.320;2024-03-17T07:05:28;30.30;;;21.00;;
4472;SDS011;2249;42.626;23.320;2024-03-17T07:07:57;28.43;;;20.17;;
4472;SDS011;2249;42.626;23.320;2024-03-17T07:10:24;41.27;;;22.07;;
4472;SDS011;2249;42.626;23.320;2024-03-17T07:12:51;27.93;;;20.37;;
4472;SDS011;2249;42.626;23.320;2024-03-17T07:15:18;32.23;;;21.00;;
4472;SDS011;2249;42.626;23.320;2024-03-17T07:17:46;31.50;;;21.23;;
4472;SDS011;2249;42.626;23.320;2024-03-17T07:20:12;30.03;;;15.73;;
4472;SDS011;2249;42.626;23.320;2024-03-17T07:22:39;27.10;;;19.27;;
4472;SDS011;2249;42.626;23.320;2024-03-17T07:25:06;39.20;;;22.20;;
4472;SDS011;2249;42.626;23.320;2024-03-17T07:27:32;30.10;;;20.50;;
4472;SDS011;2249;42.626;23.320;2024-03-17T07:29:59;26.90;;;18.80;;
4472;SDS011;2249;42.626;23.320;2024-03-17T07:32:25;28.33;;;19.77;;
4472;SDS011;2249;42.626;23.320;2024-03-17T07:34:53;34.03;;;22.20;;
4472;SDS011;2249;42.626;23.320;2024-03-17T07:37:20;31.27;;;19.77;;
4472;SDS011;2249;42.626;23.320;2024-03-17T07:39:46;32.50;;;21.53;;
4472;SDS011;2249;42.626;23.320;2024-03-17T07:42:14;33.90;;;22.00;;
4472;SDS011;2249;42.626;23.320;2024-03-17T07:44:43;36.30;;;22.17;;
4472;SDS011;2249;42.626;23.320;2024-03-17T07:47:09;30.30;;;21.53;;
4472;SDS011;2249;42.626;23.320;2024-03-17T07:49:36;28.80;;;19.77;;
4472;SDS011;2249;42.626;23.320;2024-03-17T07:52:05;27.40;;;18.30;;
4472;SDS011;2249;42.626;23.320;2024-03-17T07:54:31;25.90;;;18.50;;
4472;SDS011;2249;42.626;23.320;2024-03-17T07:57:00;28.90;;;18.50;;
4472;SDS011;2249;42.626;23.320;2024-03-17T07:59:27;31.60;;;19.07;;
4472;SDS011;2249;42.626;23.320;2024-03-17T08:01:54;27.37;;;17.80;;
4472;SDS011;2249;42.626;23.320;2024-03-17T08:04:20;31.13;;;18.90;;
4472;SDS011;2249;42.626;23.320;2024-03-17T08:06:47;27.60;;;18.40;;
4472;SDS011;2249;42.626;23.320;2024-03-17T08:09:15;30.03;;;16.47;;
4472;SDS011;2249;42.626;23.320;2024-03-17T08:11:41;26.50;;;17.17;;
4472;SDS011;2249;42.626;23.320;2024-03-17T08:14:11;27.77;;;19.03;;
4472;SDS011;2249;42.626;23.320;2024-03-17T08:16:38;27.73;;;19.57;;
4472;SDS011;2249;42.626;23.320;2024-03-17T08:19:04;27.47;;;19.33;;
4472;SDS011;2249;42.626;23.320;2024-03-17T08:21:32;29.70;;;19.37;;
4472;SDS011;2249;42.626;23.320;2024-03-17T08:23:58;33.83;;;20.30;;
4472;SDS011;2249;42.626;23.320;2024-03-17T08:26:26;37.90;;;21.37;;
4472;SDS011;2249;42.626;23.320;2024-03-17T08:28:53;32.07;;;22.60;;
4472;SDS011;2249;42.626;23.320;2024-03-17T08:31:19;36.23;;;23.70;;
4472;SDS011;2249;42.626;23.320;2024-03-17T08:33:46;32.23;;;20.70;;
4472;SDS011;2249;42.626;23.320;2024-03-17T08:36:13;30.80;;;22.07;;
4472;SDS011;2249;42.626;23.320;2024-03-17T08:38:42;31.70;;;21.80;;
4472;SDS011;2249;42.626;23.320;2024-03-17T08:41:11;42.37;;;23.93;;
4472;SDS011;2249;42.626;23.320;2024-03-17T08:43:39;35.30;;;23.20;;
4472;SDS011;2249;42.626;23.320;2024-03-17T08:46:08;34.43;;;22.70;;
4472;SDS011;2249;42.626;23.320;2024-03-17T08:48:35;40.60;;;24.93;;
4472;SDS011;2249;42.626;23.320;2024-03-17T08:51:03;40.80;;;26.33;;
4472;SDS011;2249;42.626;23.320;2024-03-17T08:53:30;45.53;;;24.63;;
4472;SDS011;2249;42.626;23.320;2024-03-17T08:55:57;41.83;;;27.27;;
4472;SDS011;2249;42.626;23.320;2024-03-17T08:58:23;34.87;;;23.23;;
4472;SDS011;2249;42.626;23.320;2024-03-17T09:00:51;35.67;;;24.50;;
4472;SDS011;2249;42.626;23.320;2024-03-17T09:03:18;34.90;;;23.33;;
4472;SDS011;2249;42.626;23.320;2024-03-17T09:05:45;40.30;;;23.27;;
4472;SDS011;2249;42.626;23.320;2024-03-17T09:08:14;55.87;;;32.90;;
4472;SDS011;2249;42.626;23.320;2024-03-17T09:10:41;35.43;;;22.57;;
4472;SDS011;2249;42.626;23.320;2024-03-17T09:13:08;29.87;;;20.97;;
4472;SDS011;2249;42.626;23.320;2024-03-17T09:15:38;27.10;;;19.10;;
4472;SDS011;2249;42.626;23.320;2024-03-17T09:18:06;28.50;;;19.37;;
4472;SDS011;2249;42.626;23.320;2024-03-17T09:20:33;27.63;;;18.63;;
4472;SDS011;2249;42.626;23.320;2024-03-17T09:22:59;23.03;;;16.03;;
4472;SDS011;2249;42.626;23.320;2024-03-17T09:25:26;27.38;;;17.10;;
4472;SDS011;2249;42.626;23.320;2024-03-17T09:27:52;24.53;;;15.63;;
4472;SDS011;2249;42.626;23.320;2024-03-17T09:30:18;24.23;;;17.20;;
4472;SDS011;2249;42.626;23.320;2024-03-17T09:32:47;22.30;;;15.50;;
4472;SDS011;2249;42.626;23.320;2024-03-17T09:35:15;15.70;;;12.10;;
4472;SDS011;2249;42.626;23.320;2024-03-17T09:37:42;23.93;;;13.47;;
4472;SDS011;2249;42.626;23.320;2024-03-17T09:40:11;14.50;;;11.80;;
4472;SDS011;2249;42.626;23.320;2024-03-17T09:42:40;13.90;;;10.83;;
4472;SDS011;2249;42.626;23.320;2024-03-17T09:45:07;13.57;;;10.57;;
4472;SDS011;2249;42.626;23.320;2024-03-17T09:47:34;14.70;;;10.57;;
4472;SDS011;2249;42.626;23.320;2024-03-17T09:50:02;15.05;;;11.75;;
4472;SDS011;2249;42.626;23.320;2024-03-17T09:52:31;14.50;;;10.43;;
4472;SDS011;2249;42.626;23.320;2024-03-17T09:54:59;9.63;;;6.87;;
4472;SDS011;2249;42.626;23.320;2024-03-17T09:57:26;7.43;;;5.80;;
4472;SDS011;2249;42.626;23.320;2024-03-17T09:59:53;5.90;;;5.00;;
4472;SDS011;2249;42.626;23.320;2024-03-17T10:02:20;8.53;;;5.93;;
4472;SDS011;2249;42.626;23.320;2024-03-17T10:04:47;15.10;;;7.00;;
4472;SDS011;2249;42.626;23.320;2024-03-17T10:07:13;12.90;;;8.27;;
4472;SDS011;2249;42.626;23.320;2024-03-17T10:09:42;9.20;;;7.50;;
4472;SDS011;2249;42.626;23.320;2024-03-17T10:14:57;7.53;;;5.43;;
4472;SDS011;2249;42.626;23.320;2024-03-17T10:17:28;8.20;;;6.67;;
4472;SDS011;2249;42.626;23.320;2024-03-17T10:20:00;10.93;;;6.07;;
4472;SDS011;2249;42.626;23.320;2024-03-17T10:22:37;6.63;;;5.93;;
4472;SDS011;2249;42.626;23.320;2024-03-17T10:25:05;9.27;;;5.83;;
4472;SDS011;2249;42.626;23.320;2024-03-17T10:27:35;6.80;;;5.50;;
4472;SDS011;2249;42.626;23.320;2024-03-17T10:30:02;6.67;;;5.60;;
4472;SDS011;2249;42.626;23.320;2024-03-17T10:32:31;8.60;;;5.50;;
4472;SDS011;2249;42.626;23.320;2024-03-17T10:34:57;8.63;;;6.20;;
4472;SDS011;2249;42.626;23.320;2024-03-17T10:37:24;7.73;;;5.83;;
4472;SDS011;2249;42.626;23.320;2024-03-17T10:39:53;10.43;;;8.40;;
4472;SDS011;2249;42.626;23.320;2024-03-17T10:42:22;10.30;;;6.80;;
4472;SDS011;2249;42.626;23.320;2024-03-17T10:44:50;9.60;;;6.43;;
4472;SDS011;2249;42.626;23.320;2024-03-17T10:47:18;12.40;;;7.90;;
4472;SDS011;2249;42.626;23.320;2024-03-17T10:49:46;10.63;;;7.70;;
4472;SDS011;2249;42.626;23.320;2024-03-17T10:52:15;9.20;;;6.77;;
4472;SDS011;2249;42.626;23.320;2024-03-17T10:54:43;8.93;;;6.90;;
4472;SDS011;2249;42.626;23.320;2024-03-17T10:57:15;10.80;;;7.50;;
4472;SDS011;2249;42.626;23.320;2024-03-17T10:59:46;10.50;;;6.20;;
4472;SDS011;2249;42.626;23.320;2024-03-17T11:02:16;7.00;;;5.83;;
4472;SDS011;2249;42.626;23.320;2024-03-17T11:04:44;11.57;;;7.87;;
4472;SDS011;2249;42.626;23.320;2024-03-17T11:07:11;10.40;;;9.27;;
4472;SDS011;2249;42.626;23.320;2024-03-17T11:09:41;9.37;;;6.63;;
4472;SDS011;2249;42.626;23.320;2024-03-17T11:12:20;6.37;;;5.57;;
4472;SDS011;2249;42.626;23.320;2024-03-17T11:20:43;9.70;;;6.67;;
4472;SDS011;2249;42.626;23.320;2024-03-17T11:23:26;10.70;;;6.50;;
4472;SDS011;2249;42.626;23.320;2024-03-17T11:25:54;10.93;;;8.53;;
4472;SDS011;2249;42.626;23.320;2024-03-17T11:31:02;10.17;;;7.87;;
4472;SDS011;2249;42.626;23.320;2024-03-17T11:33:49;12.33;;;7.40;;
4472;SDS011;2249;42.626;23.320;2024-03-17T11:36:29;12.07;;;8.40;;
4472;SDS011;2249;42.626;23.320;2024-03-17T11:38:56;8.67;;;7.77;;
4472;SDS011;2249;42.626;23.320;2024-03-17T11:41:37;10.57;;;8.10;;
4472;SDS011;2249;42.626;23.320;2024-03-17T11:44:13;10.17;;;7.97;;
4472;SDS011;2249;42.626;23.320;2024-03-17T11:46:40;9.90;;;7.33;;
4472;SDS011;2249;42.626;23.320;2024-03-17T11:49:07;11.50;;;6.57;;
4472;SDS011;2249;42.626;23.320;2024-03-17T11:51:33;10.93;;;8.20;;
4472;SDS011;2249;42.626;23.320;2024-03-17T11:53:59;9.47;;;7.57;;
4472;SDS011;2249;42.626;23.320;2024-03-17T11:56:26;10.67;;;7.17;;
4472;SDS011;2249;42.626;23.320;2024-03-17T11:59:03;11.40;;;8.03;;
4472;SDS011;2249;42.626;23.320;2024-03-17T12:01:28;10.83;;;6.53;;
4472;SDS011;2249;42.626;23.320;2024-03-17T12:03:55;6.47;;;5.70;;
4472;SDS011;2249;42.626;23.320;2024-03-17T12:06:24;7.43;;;6.00;;
4472;SDS011;2249;42.626;23.320;2024-03-17T12:08:51;8.33;;;6.80;;
4472;SDS011;2249;42.626;23.320;2024-03-17T12:11:17;8.67;;;5.47;;
4472;SDS011;2249;42.626;23.320;2024-03-17T12:13:44;5.77;;;5.10;;
4472;SDS011;2249;42.626;23.320;2024-03-17T12:16:10;8.50;;;5.50;;
4472;SDS011;2249;42.626;23.320;2024-03-17T12:18:37;8.13;;;6.20;;
4472;SDS011;2249;42.626;23.320;2024-03-17T12:21:08;9.60;;;6.07;;
4472;SDS011;2249;42.626;23.320;2024-03-17T12:23:39;6.30;;;5.30;;
4472;SDS011;2249;42.626;23.320;2024-03-17T12:26:05;8.50;;;6.17;;
4472;SDS011;2249;42.626;23.320;2024-03-17T12:28:31;7.03;;;5.93;;
4472;SDS011;2249;42.626;23.320;2024-03-17T12:30:57;15.33;;;5.80;;
4472;SDS011;2249;42.626;23.320;2024-03-17T12:33:24;14.67;;;6.00;;
4472;SDS011;2249;42.626;23.320;2024-03-17T12:35:50;8.27;;;6.10;;
4472;SDS011;2249;42.626;23.320;2024-03-17T12:38:20;7.03;;;5.53;;
4472;SDS011;2249;42.626;23.320;2024-03-17T12:40:48;6.90;;;5.70;;
4472;SDS011;2249;42.626;23.320;2024-03-17T12:43:15;15.33;;;7.47;;
4472;SDS011;2249;42.626;23.320;2024-03-17T12:45:40;9.20;;;7.10;;
4472;SDS011;2249;42.626;23.320;2024-03-17T12:48:12;12.47;;;8.97;;
4472;SDS011;2249;42.626;23.320;2024-03-17T12:50:43;10.73;;;9.00;;
4472;SDS011;2249;42.626;23.320;2024-03-17T12:53:13;11.00;;;6.73;;
4472;SDS011;2249;42.626;23.320;2024-03-17T12:55:41;12.10;;;7.97;;
4472;SDS011;2249;42.626;23.320;2024-03-17T12:58:35;11.60;;;7.30;;
4472;SDS011;2249;42.626;23.320;2024-03-17T13:01:19;9.80;;;7.10;;
4472;SDS011;2249;42.626;23.320;2024-03-17T13:03:46;7.90;;;6.50;;
4472;SDS011;2249;42.626;23.320;2024-03-17T13:06:21;11.20;;;7.60;;
4472;SDS011;2249;42.626;23.320;2024-03-17T13:08:49;15.57;;;9.10;;
4472;SDS011;2249;42.626;23.320;2024-03-17T13:11:16;13.27;;;9.33;;
4472;SDS011;2249;42.626;23.320;2024-03-17T13:13:43;13.63;;;7.43;;
4472;SDS011;2249;42.626;23.320;2024-03-17T13:16:10;10.40;;;8.00;;
4472;SDS011;2249;42.626;23.320;2024-03-17T13:18:38;12.70;;;8.00;;
4472;SDS011;2249;42.626;23.320;2024-03-17T13:21:05;10.07;;;7.43;;
4472;SDS011;2249;42.626;23.320;2024-03-17T13:23:31;13.73;;;8.13;;
4472;SDS011;2249;42.626;23.320;2024-03-17T13:25:58;9.90;;;7.70;;
4472;SDS011;2249;42.626;23.320;2024-03-17T13:28:24;13.43;;;7.53;;
4472;SDS011;2249;42.626;23.320;2024-03-17T13:30:52;10.57;;;7.40;;
4472;SDS011;2249;42.626;23.320;2024-03-17T13:33:19;14.83;;;7.63;;
4472;SDS011;2249;42.626;23.320;2024-03-17T13:35:46;10.00;;;8.30;;
4472;SDS011;2249;42.626;23.320;2024-03-17T13:38:12;10.53;;;8.17;;
4472;SDS011;2249;42.626;23.320;2024-03-17T13:40:39;16.90;;;12.30;;
4472;SDS011;2249;42.626;23.320;2024-03-17T13:43:07;14.57;;;8.53;;
4472;SDS011;2249;42.626;23.320;2024-03-17T13:45:37;10.30;;;8.10;;
4472;SDS011;2249;42.626;23.320;2024-03-17T13:48:06;14.17;;;9.70;;
4472;SDS011;2249;42.626;23.320;2024-03-17T13:50:35;12.70;;;8.97;;
4472;SDS011;2249;42.626;23.320;2024-03-17T13:53:03;13.60;;;9.17;;
4472;SDS011;2249;42.626;23.320;2024-03-17T13:55:29;15.77;;;9.27;;
4472;SDS011;2249;42.626;23.320;2024-03-17T13:57:57;13.07;;;9.67;;
4472;SDS011;2249;42.626;23.320;2024-03-17T14:00:24;12.87;;;9.53;;
4472;SDS011;2249;42.626;23.320;2024-03-17T14:02:51;13.10;;;10.33;;
4472;SDS011;2249;42.626;23.320;2024-03-17T14:05:20;14.40;;;10.23;;
4472;SDS011;2249;42.626;23.320;2024-03-17T14:07:47;11.43;;;9.13;;
4472;SDS011;2249;42.626;23.320;2024-03-17T14:10:16;12.87;;;9.70;;
4472;SDS011;2249;42.626;23.320;2024-03-17T14:12:43;11.73;;;9.37;;
4472;SDS011;2249;42.626;23.320;2024-03-17T14:15:10;25.33;;;10.80;;
4472;SDS011;2249;42.626;23.320;2024-03-17T14:17:37;13.63;;;10.87;;
4472;SDS011;2249;42.626;23.320;2024-03-17T14:20:04;13.40;;;11.00;;
4472;SDS011;2249;42.626;23.320;2024-03-17T14:22:32;11.13;;;9.43;;
4472;SDS011;2249;42.626;23.320;2024-03-17T14:24:59;14.80;;;9.60;;
4472;SDS011;2249;42.626;23.320;2024-03-17T14:27:25;12.50;;;9.17;;
4472;SDS011;2249;42.626;23.320;2024-03-17T14:29:53;13.20;;;10.27;;
4472;SDS011;2249;42.626;23.320;2024-03-17T14:32:19;16.60;;;11.20;;
4472;SDS011;2249;42.626;23.320;2024-03-17T14:34:46;11.90;;;9.50;;
4472;SDS011;2249;42.626;23.320;2024-03-17T14:37:12;17.00;;;11.70;;
4472;SDS011;2249;42.626;23.320;2024-03-17T14:39:40;11.93;;;9.70;;
4472;SDS011;2249;42.626;23.320;2024-03-17T14:42:07;13.40;;;10.00;;
4472;SDS011;2249;42.626;23.320;2024-03-17T14:44:34;14.83;;;10.13;;
4472;SDS011;2249;42.626;23.320;2024-03-17T14:47:00;23.70;;;11.87;;
4472;SDS011;2249;42.626;23.320;2024-03-17T14:49:29;19.07;;;11.00;;
4472;SDS011;2249;42.626;23.320;2024-03-17T14:51:56;15.20;;;10.90;;
4472;SDS011;2249;42.626;23.320;2024-03-17T14:54:23;15.27;;;10.50;;
4472;SDS011;2249;42.626;23.320;2024-03-17T14:56:51;17.27;;;11.80;;